Time;durP1;ratioP1;P1;durP2;ratioP2;P2;SDS_P1;SDS_P2;PMS_P1;PMS_P2;Temp;Humidity;BMP_temperature;BMP_pressure;BME280_temperature;BME280_humidity;BME280_pressure;Samples;Min_cycle;Max_cycle;Signal;HPM_P1;HPM_P2
2022/10/28 00:02:21;;;;;;;11.07;3.35;;;;;;;20.41;58.58;100162.00;4794234;29;20059;-85
2022/10/28 00:05:08;;;;;;;10.20;3.58;;;;;;;20.38;58.58;100160.44;4874619;28;20148;-85
2022/10/28 00:07:35;;;;;;;10.57;3.33;;;;;;;20.35;58.63;100152.69;4955272;28;20417;-84
2022/10/28 00:10:02;;;;;;;7.85;3.40;;;;;;;20.35;58.64;100154.50;4938510;28;20055;-84
2022/10/28 00:12:28;;;;;;;7.95;3.28;;;;;;;20.33;58.91;100164.53;4955369;28;20142;-84
2022/10/28 00:14:56;;;;;;;6.10;2.97;;;;;;;20.33;59.08;100153.81;4938314;28;20055;-84
2022/10/28 00:17:23;;;;;;;7.13;3.40;;;;;;;20.32;58.95;100142.28;4938290;28;20051;-83
2022/10/28 00:19:52;;;;;;;8.73;3.47;;;;;;;20.32;59.15;100150.31;4938273;28;20113;-84
2022/10/28 00:22:19;;;;;;;9.30;3.50;;;;;;;20.30;58.89;100142.41;4938074;28;20051;-84
2022/10/28 00:24:48;;;;;;;9.02;3.90;;;;;;;20.30;59.00;100138.91;4955263;28;20051;-84
2022/10/28 00:27:17;;;;;;;12.15;3.65;;;;;;;20.31;59.09;100143.28;4954742;28;20054;-84
2022/10/28 00:29:57;;;;;;;;;;;;;;;;;;;;;
2022/10/28 00:32:35;;;;;;;8.52;3.55;;;;;;;20.30;59.05;100145.09;4955026;28;20420;-84
2022/10/28 00:35:02;;;;;;;8.50;3.03;;;;;;;20.29;58.98;100139.88;4954764;28;20059;-84
2022/10/28 00:37:31;;;;;;;10.70;3.67;;;;;;;20.27;58.94;100133.84;4937741;28;20127;-84
2022/10/28 00:40:02;;;;;;;10.50;3.03;;;;;;;20.27;59.04;100126.69;4954830;28;20509;-84
2022/10/28 00:42:34;;;;;;;6.32;2.95;;;;;;;20.26;59.00;100119.63;4937625;28;20047;-84
2022/10/28 00:45:03;;;;;;;9.77;3.58;;;;;;;20.27;58.85;100121.34;4954514;28;20054;-84
2022/10/28 00:47:42;;;;;;;14.77;3.72;;;;;;;20.23;59.20;100119.06;4954631;28;20051;-84
2022/10/28 00:50:08;;;;;;;7.25;3.05;;;;;;;20.28;59.37;100116.81;4954878;28;20066;-84
2022/10/28 00:52:36;;;;;;;14.13;3.47;;;;;;;20.26;59.18;100108.94;4954427;28;20052;-84
2022/10/28 00:55:07;;;;;;;4.88;3.13;;;;;;;20.26;59.01;100113.47;4937669;28;20101;-84
2022/10/28 00:57:36;;;;;;;12.45;4.07;;;;;;;20.25;59.02;100111.75;4954402;28;20058;-84
2022/10/28 01:00:05;;;;;;;10.63;3.80;;;;;;;20.24;59.19;100107.38;4954082;28;20063;-84
2022/10/28 01:02:40;;;;;;;9.23;3.45;;;;;;;20.23;59.14;100108.38;4954411;28;20062;-84
2022/10/28 01:05:08;;;;;;;8.25;2.90;;;;;;;20.25;59.07;100103.72;4954170;28;20063;-84
2022/10/28 01:07:46;;;;;;;10.73;3.22;;;;;;;20.23;59.02;100100.38;4954134;28;20062;-84
2022/10/28 01:10:24;;;;;;;13.55;3.83;;;;;;;20.25;58.98;100096.56;4954596;28;20110;-84
2022/10/28 01:13:32;;;;;;;8.95;3.63;;;;;;;20.21;59.11;100089.81;4954314;28;20051;-84
2022/10/28 01:16:25;;;;;;;9.73;3.08;;;;;;;20.26;58.99;100090.22;4954187;28;20118;-84
2022/10/28 01:19:07;;;;;;;10.23;2.95;;;;;;;20.24;58.96;100094.03;4954137;28;20055;-84
2022/10/28 01:22:12;;;;;;;8.30;3.30;;;;;;;20.24;58.79;100099.38;4936947;28;20594;-84
2022/10/28 01:24:48;;;;;;;10.60;2.83;;;;;;;20.29;58.93;100089.94;4937088;28;20485;-84
2022/10/28 01:27:14;;;;;;;7.88;2.88;;;;;;;20.28;58.87;100090.09;4953725;28;20578;-84
2022/10/28 01:30:09;;;;;;;9.50;3.50;;;;;;;20.24;58.98;100089.53;4953899;28;20536;-84
2022/10/28 01:32:55;;;;;;;9.43;3.60;;;;;;;20.26;58.80;100086.72;4937257;28;20524;-84
2022/10/28 01:35:34;;;;;;;;;;;;;;;20.27;58.73;100089.25;4937509;28;20417;-84
2022/10/28 01:38:14;;;;;;;6.10;2.92;;;;;;;20.29;58.74;100089.94;4953984;28;20009;-84
2022/10/28 01:41:14;;;;;;;8.65;3.15;;;;;;;20.27;58.42;100088.41;4953970;28;20121;-84
2022/10/28 01:44:16;;;;;;;11.35;3.13;;;;;;;20.26;58.70;100081.38;4937001;28;20066;-84
2022/10/28 01:47:02;;;;;;;11.43;2.92;;;;;;;20.30;58.53;100085.47;4952852;28;20058;-84
2022/10/28 01:49:58;;;;;;;8.30;2.92;;;;;;;20.24;58.40;100084.19;4953916;28;20051;-84
2022/10/28 01:52:29;;;;;;;13.77;2.92;;;;;;;20.25;58.57;100071.66;4936377;28;20051;-84
2022/10/28 01:55:36;;;;;;;;;;;;;;;;;;;;;
2022/10/28 01:58:19;;;;;;;6.85;3.30;;;;;;;20.22;58.28;100075.44;4856802;29;20060;-85
2022/10/28 02:00:54;;;;;;;8.55;3.20;;;;;;;20.20;58.26;100071.25;4856758;29;20051;-84
2022/10/28 02:03:51;;;;;;;;;;;;;;;;;;;;;
2022/10/28 02:06:25;;;;;;;13.55;3.33;;;;;;;20.14;58.33;100064.63;4856388;29;20089;-85
2022/10/28 02:09:17;;;;;;;7.93;3.05;;;;;;;20.10;58.51;100053.41;4841294;29;20056;-84
2022/10/28 02:12:19;;;;;;;8.82;3.38;;;;;;;20.04;58.57;100052.13;4895423;28;20325;-84
2022/10/28 02:14:46;;;;;;;10.35;3.30;;;;;;;20.10;58.47;100061.41;4936029;28;20520;-84
2022/10/28 02:17:46;;;;;;;7.22;2.75;;;;;;;20.03;58.65;100049.59;4936023;28;20059;-84
2022/10/28 02:21:01;;;;;;;9.63;3.25;;;;;;;20.00;58.35;100042.72;4936421;28;20051;-84
2022/10/28 02:23:44;;;;;;;8.60;2.97;;;;;;;20.01;58.33;100040.88;4953066;28;20114;-84
2022/10/28 02:26:22;;;;;;;10.00;3.22;;;;;;;20.02;58.47;100031.88;4935483;28;20058;-84
2022/10/28 02:29:00;;;;;;;11.20;3.10;;;;;;;20.01;58.33;100024.88;4935756;28;20422;-84
2022/10/28 02:31:39;;;;;;;9.45;3.20;;;;;;;19.97;58.25;100029.63;4952945;28;20055;-84
2022/10/28 02:34:11;;;;;;;16.90;3.58;;;;;;;19.98;58.47;100030.44;4952906;28;20051;-84
2022/10/28 02:36:42;;;;;;;6.45;2.92;;;;;;;19.97;58.61;100024.28;4952520;28;20055;-84
2022/10/28 02:39:17;;;;;;;7.60;2.83;;;;;;;19.97;58.52;100028.78;4952740;28;20150;-84
2022/10/28 02:41:50;;;;;;;8.82;3.45;;;;;;;19.96;58.30;100032.44;4952755;28;20058;-84
2022/10/28 02:44:27;;;;;;;10.30;3.55;;;;;;;19.96;58.35;100025.25;4952585;28;20051;-84
2022/10/28 02:47:00;;;;;;;14.68;3.20;;;;;;;19.97;58.32;100023.44;4952196;28;20058;-84
2022/10/28 02:49:32;;;;;;;8.07;3.47;;;;;;;19.96;58.06;100021.75;4935510;28;20061;-84
2022/10/28 02:52:03;;;;;;;11.15;3.60;;;;;;;19.96;58.09;100021.75;4952664;28;20374;-84
2022/10/28 02:54:44;;;;;;;8.23;2.80;;;;;;;19.95;58.32;100018.22;4952614;28;20082;-85
2022/10/28 02:57:20;;;;;;;6.43;2.75;;;;;;;19.91;58.24;100023.00;4952565;28;20051;-84
2022/10/28 02:59:57;;;;;;;8.45;2.92;;;;;;;19.91;58.31;100020.34;4952996;28;20057;-84
2022/10/28 03:02:24;;;;;;;8.52;3.00;;;;;;;19.92;58.13;100021.16;4935764;28;20070;-84
2022/10/28 03:04:51;;;;;;;12.35;3.20;;;;;;;19.90;58.28;100021.34;4935121;28;20561;-84
2022/10/28 03:07:20;;;;;;;12.80;3.50;;;;;;;19.89;58.26;100016.13;4935370;28;20135;-84
2022/10/28 03:09:50;;;;;;;6.30;2.92;;;;;;;19.88;58.27;100014.41;4952358;28;20062;-84
2022/10/28 03:12:21;;;;;;;5.90;2.70;;;;;;;19.87;58.25;100016.28;4936349;28;20079;-84
2022/10/28 03:14:47;;;;;;;6.55;3.55;;;;;;;19.86;58.18;100021.75;4952086;28;20535;-84
2022/10/28 03:17:15;;;;;;;5.32;3.13;;;;;;;19.83;57.99;100012.19;4935533;28;20051;-83
2022/10/28 03:19:47;;;;;;;11.60;3.70;;;;;;;19.81;57.98;100006.13;4952556;28;20086;-84
2022/10/28 03:22:13;;;;;;;9.02;3.15;;;;;;;19.80;58.17;100012.47;4953208;28;20047;-84
2022/10/28 03:24:41;;;;;;;11.75;3.63;;;;;;;19.77;58.26;100005.59;4939246;28;20142;-84
2022/10/28 03:27:07;;;;;;;11.93;3.20;;;;;;;19.75;58.13;99998.69;4955805;28;20417;-84
2022/10/28 03:29:36;;;;;;;8.75;3.08;;;;;;;19.72;58.14;99999.84;4939042;28;20055;-83
2022/10/28 03:32:11;;;;;;;11.48;3.13;;;;;;;19.71;58.00;99999.97;4956207;28;20047;-84
2022/10/28 03:34:38;;;;;;;7.30;2.95;;;;;;;19.69;58.28;99996.59;4938852;28;20047;-84
2022/10/28 03:37:04;;;;;;;13.13;3.30;;;;;;;19.67;58.09;100004.75;4939016;28;20513;-84
2022/10/28 03:39:31;;;;;;;7.95;2.95;;;;;;;19.64;58.09;99997.88;4938958;29;20055;-84
2022/10/28 03:45:50;;;;;;;8.55;3.20;;;;;;;19.61;58.04;100000.81;4946791;23;20111;-61
2022/10/28 03:48:18;;;;;;;9.90;3.10;;;;;;;19.59;57.98;99999.28;5014424;28;20705;-61
2022/10/28 03:50:44;;;;;;;8.15;3.00;;;;;;;19.57;58.48;99995.88;5014602;28;20116;-63
2022/10/28 03:53:11;;;;;;;8.10;3.30;;;;;;;19.56;58.39;99986.19;5014811;28;20065;-62
2022/10/28 03:55:37;;;;;;;8.68;2.92;;;;;;;19.53;58.53;99985.50;5014242;28;20490;-61
2022/10/28 03:58:04;;;;;;;7.97;3.13;;;;;;;19.53;58.29;99990.00;5014711;28;20099;-61
2022/10/28 04:00:30;;;;;;;7.47;3.00;;;;;;;19.53;58.46;99990.00;4997096;28;20085;-61
2022/10/28 04:02:57;;;;;;;7.95;3.60;;;;;;;19.52;58.10;99985.66;5013409;28;20091;-60
2022/10/28 04:05:23;;;;;;;11.38;3.03;;;;;;;19.51;58.15;99983.97;5014419;28;20082;-61
2022/10/28 04:07:49;;;;;;;8.80;2.78;;;;;;;19.51;58.50;99983.97;5014265;28;20129;-63
2022/10/28 04:10:16;;;;;;;9.65;3.05;;;;;;;19.48;58.37;99981.56;5014176;28;20050;-61
2022/10/28 04:12:42;;;;;;;9.15;3.40;;;;;;;19.48;58.08;99984.22;5014173;28;20486;-61
2022/10/28 04:15:09;;;;;;;10.30;2.83;;;;;;;19.47;58.26;99985.22;4996239;28;20053;-61
2022/10/28 04:17:35;;;;;;;8.73;3.38;;;;;;;19.47;58.13;99987.91;5014333;28;20089;-61
2022/10/28 04:20:02;;;;;;;14.20;3.60;;;;;;;19.47;58.20;99987.91;4996598;28;20046;-61
2022/10/28 04:22:28;;;;;;;13.07;3.28;;;;;;;19.47;58.32;99980.72;5014010;28;20050;-64
2022/10/28 04:24:54;;;;;;;7.28;3.30;;;;;;;19.49;58.18;99988.59;5013696;28;20108;-63
2022/10/28 04:27:21;;;;;;;8.20;3.40;;;;;;;19.48;58.38;99986.91;5013899;28;20136;-60
2022/10/28 04:29:47;;;;;;;11.25;3.13;;;;;;;19.49;58.08;99984.09;5013992;28;20053;-62
2022/10/28 04:32:13;;;;;;;8.90;2.85;;;;;;;19.48;58.29;99990.41;5013880;28;20088;-61
2022/10/28 04:34:40;;;;;;;11.18;3.08;;;;;;;19.47;58.14;99990.56;5013132;28;20089;-60
2022/10/28 04:37:06;;;;;;;9.18;2.95;;;;;;;19.46;58.42;99983.53;5013701;28;20077;-61
2022/10/28 04:39:33;;;;;;;9.20;3.22;;;;;;;19.45;58.23;99987.19;5013770;28;20084;-61
2022/10/28 04:41:59;;;;;;;8.07;2.72;;;;;;;19.44;57.80;99986.31;5013563;28;20573;-62
2022/10/28 04:44:25;;;;;;;10.10;3.03;;;;;;;19.44;57.77;99980.16;5013625;28;20085;-62
2022/10/28 04:46:55;;;;;;;11.63;3.22;;;;;;;19.44;57.87;99977.50;5013251;28;20069;-62
2022/10/28 04:49:21;;;;;;;10.25;2.88;;;;;;;19.45;57.81;99980.03;4995823;28;20084;-61
2022/10/28 04:51:47;;;;;;;7.68;2.95;;;;;;;19.45;57.98;99981.84;5013344;28;20099;-63
2022/10/28 04:54:14;;;;;;;14.50;3.10;;;;;;;19.44;58.09;99974.81;5013388;28;20545;-62
2022/10/28 04:56:40;;;;;;;8.63;3.13;;;;;;;19.44;58.31;99989.00;5013266;28;20111;-62
2022/10/28 04:59:06;;;;;;;9.18;3.00;;;;;;;19.46;58.23;99988.84;4995813;28;20545;-63
2022/10/28 05:01:33;;;;;;;12.50;3.05;;;;;;;19.46;58.12;99983.53;5013374;28;20092;-61
2022/10/28 05:03:59;;;;;;;12.50;3.30;;;;;;;19.48;58.19;99981.56;5013222;28;20061;-62
2022/10/28 05:06:26;;;;;;;11.13;3.33;;;;;;;19.48;58.17;99970.88;5012866;28;20281;-60
2022/10/28 05:08:52;;;;;;;11.50;3.20;;;;;;;19.50;57.83;99979.59;5013009;28;20076;-62
2022/10/28 05:11:18;;;;;;;10.45;3.17;;;;;;;19.51;57.82;99978.63;5013403;28;20057;-63
2022/10/28 05:13:45;;;;;;;10.50;2.78;;;;;;;19.51;58.15;99971.44;4995608;28;20521;-62
2022/10/28 05:16:11;;;;;;;11.63;3.13;;;;;;;19.51;58.12;99968.78;5012874;28;20088;-62
2022/10/28 05:18:37;;;;;;;10.70;2.95;;;;;;;19.52;57.85;99973.13;5013010;28;20053;-63
2022/10/28 05:21:04;;;;;;;9.77;3.13;;;;;;;19.53;57.58;99980.16;5013079;28;20054;-61
2022/10/28 05:23:30;;;;;;;9.98;3.03;;;;;;;19.53;57.57;99974.81;5012815;28;20046;-61
2022/10/28 05:25:57;;;;;;;10.35;3.38;;;;;;;19.53;57.69;99966.81;5012744;28;20046;-60
2022/10/28 05:28:23;;;;;;;8.25;3.38;;;;;;;19.53;57.89;99965.97;5012801;28;20490;-62
2022/10/28 05:30:50;;;;;;;11.70;3.17;;;;;;;19.52;57.84;99962.44;5012853;28;20077;-61
2022/10/28 05:33:16;;;;;;;8.93;3.45;;;;;;;19.53;57.60;99973.97;5012604;28;20050;-61
2022/10/28 05:35:43;;;;;;;11.80;2.75;;;;;;;19.53;57.75;99973.97;5012365;28;20084;-62
2022/10/28 05:38:09;;;;;;;11.55;3.13;;;;;;;19.50;57.86;99967.09;5012766;28;20146;-61
2022/10/28 05:40:35;;;;;;;10.32;3.13;;;;;;;19.50;57.81;99971.56;5012768;28;20100;-62
2022/10/28 05:43:02;;;;;;;9.43;3.22;;;;;;;19.48;57.85;99969.03;5012584;28;20614;-60
2022/10/28 05:45:29;;;;;;;6.30;3.00;;;;;;;19.48;57.58;99977.06;5012276;28;20050;-61
2022/10/28 05:48:00;;;;;;;10.13;3.13;;;;;;;19.48;57.62;99976.22;5012286;28;20045;-61
2022/10/28 05:50:27;;;;;;;10.05;3.13;;;;;;;19.48;57.70;99977.06;5012428;28;20093;-62
2022/10/28 05:52:55;;;;;;;11.23;3.40;;;;;;;19.48;57.59;99978.91;5012292;28;20053;-60
2022/10/28 05:55:24;;;;;;;13.32;2.95;;;;;;;19.48;57.85;99970.88;5012210;28;20484;-61
2022/10/28 05:57:51;;;;;;;9.95;3.30;;;;;;;19.49;57.55;99976.09;5012299;28;20058;-62
2022/10/28 06:00:23;;;;;;;8.00;3.17;;;;;;;19.50;57.77;99971.56;4995003;28;20057;-61
2022/10/28 06:02:49;;;;;;;12.82;3.40;;;;;;;19.49;57.95;99965.41;5011990;28;20103;-63
2022/10/28 06:05:17;;;;;;;9.48;3.28;;;;;;;19.50;57.70;99968.91;5012111;28;20474;-61
2022/10/28 06:07:43;;;;;;;11.48;3.20;;;;;;;19.49;57.87;99968.09;4994689;28;20077;-61
2022/10/28 06:10:10;;;;;;;9.68;3.17;;;;;;;19.49;57.46;99972.56;5012274;28;20104;-63
2022/10/28 06:12:37;;;;;;;8.80;3.25;;;;;;;19.49;57.58;99975.25;5011987;28;20494;-62
2022/10/28 06:15:03;;;;;;;10.88;3.17;;;;;;;19.48;57.57;99982.38;5011791;28;20046;-62
2022/10/28 06:17:30;;;;;;;7.50;2.85;;;;;;;19.49;57.70;99983.25;5011812;28;20103;-62
2022/10/28 06:19:56;;;;;;;8.20;3.00;;;;;;;19.47;57.97;99980.72;5011748;28;20066;-62
2022/10/28 06:22:22;;;;;;;12.05;3.33;;;;;;;19.47;57.75;99982.56;5012055;28;20085;-62
2022/10/28 06:24:49;;;;;;;15.43;3.20;;;;;;;19.47;57.86;99980.72;5011778;28;20490;-63
2022/10/28 06:27:15;;;;;;;10.07;3.38;;;;;;;19.47;57.70;99988.72;5011675;28;20441;-61
2022/10/28 06:29:42;;;;;;;13.20;3.65;;;;;;;19.47;57.64;99988.72;5011718;28;20088;-62
2022/10/28 06:32:09;;;;;;;7.97;3.20;;;;;;;19.48;57.69;99990.41;5011640;28;20326;-61
2022/10/28 06:34:38;;;;;;;9.75;3.28;;;;;;;19.50;57.55;99984.94;5011613;28;20073;-61
2022/10/28 06:37:06;;;;;;;11.82;3.70;;;;;;;19.50;57.86;99983.09;5011597;28;20454;-61
2022/10/28 06:39:32;;;;;;;6.88;3.03;;;;;;;19.52;57.67;99983.78;5011606;28;20050;-62
2022/10/28 06:41:59;;;;;;;11.55;3.20;;;;;;;19.54;57.73;99989.00;5011665;28;20132;-62
2022/10/28 06:44:25;;;;;;;22.95;5.30;;;;;;;19.55;57.46;99992.53;5011383;28;20058;-63
2022/10/28 06:46:52;;;;;;;8.05;3.63;;;;;;;19.55;57.87;99998.69;5011041;28;20057;-61
2022/10/28 06:49:18;;;;;;;9.40;2.63;;;;;;;19.56;57.64;100000.41;5011381;28;20493;-61
2022/10/28 06:51:44;;;;;;;12.23;3.55;;;;;;;19.57;57.50;100001.22;5011450;28;20565;-60
2022/10/28 06:54:11;;;;;;;10.75;3.20;;;;;;;19.56;57.63;100004.88;5011278;28;20137;-60
2022/10/28 06:56:37;;;;;;;11.05;3.20;;;;;;;19.57;57.54;100002.06;5010662;28;20077;-60
2022/10/28 06:59:03;;;;;;;8.27;3.28;;;;;;;19.59;57.83;99999.28;5011023;28;20077;-60
2022/10/28 07:01:30;;;;;;;16.23;3.95;;;;;;;19.61;57.83;100010.66;5011394;28;20096;-61
2022/10/28 07:03:56;;;;;;;10.20;2.90;;;;;;;19.62;57.62;100001.66;5011240;28;20140;-60
2022/10/28 07:06:23;;;;;;;16.88;3.22;;;;;;;19.62;57.46;100015.84;5011207;28;20058;-61
2022/10/28 07:08:50;;;;;;;8.82;2.97;;;;;;;19.64;57.61;100008.56;4993920;28;20045;-62
2022/10/28 07:11:17;;;;;;;8.38;3.15;;;;;;;19.65;57.62;100009.38;4993932;28;20073;-63
2022/10/28 07:13:44;;;;;;;13.10;3.10;;;;;;;19.66;57.65;100006.56;5011382;28;20087;-60
2022/10/28 07:16:14;;;;;;;8.52;3.25;;;;;;;19.67;57.59;100008.25;5010992;28;20474;-60
2022/10/28 07:18:40;;;;;;;9.73;3.35;;;;;;;19.70;57.71;100006.31;5011372;28;20078;-61
2022/10/28 07:21:06;;;;;;;8.68;3.35;;;;;;;19.70;57.58;100009.78;5011296;28;20133;-60
2022/10/28 07:23:33;;;;;;;13.93;3.47;;;;;;;19.71;57.56;100008.84;5011262;28;20070;-61
2022/10/28 07:25:59;;;;;;;13.30;3.65;;;;;;;19.73;57.57;100008.69;5010940;28;20058;-63
2022/10/28 07:28:26;;;;;;;10.38;3.63;;;;;;;19.75;57.70;100014.72;5010858;28;20054;-62
2022/10/28 07:30:53;;;;;;;12.73;3.45;;;;;;;19.77;57.77;100010.94;5011568;28;20085;-61
2022/10/28 07:33:19;;;;;;;11.95;3.55;;;;;;;19.80;57.73;100015.13;5011293;28;20112;-61
2022/10/28 07:35:46;;;;;;;13.43;3.20;;;;;;;19.81;57.79;100019.50;5010882;28;20085;-61
2022/10/28 07:38:12;;;;;;;11.95;3.75;;;;;;;19.84;57.23;100013.88;5011166;28;20101;-60
2022/10/28 07:40:39;;;;;;;12.75;3.28;;;;;;;19.86;57.52;100016.41;5010898;28;20116;-60
2022/10/28 07:43:05;;;;;;;8.68;3.13;;;;;;;19.89;57.56;100022.28;5010969;28;20104;-61
2022/10/28 07:45:33;;;;;;;16.98;3.47;;;;;;;19.91;57.87;100015.00;5010386;28;20498;-61
2022/10/28 07:48:00;;;;;;;9.45;3.53;;;;;;;19.93;57.68;100026.38;4993693;28;20104;-60
2022/10/28 07:50:26;;;;;;;8.52;3.20;;;;;;;19.96;57.56;100021.75;5010673;28;20513;-62
2022/10/28 07:52:53;;;;;;;8.95;3.45;;;;;;;19.99;57.89;100022.31;5010993;28;20077;-61
2022/10/28 07:55:20;;;;;;;8.88;3.03;;;;;;;20.02;57.59;100024.72;5010506;28;20068;-61
2022/10/28 07:57:47;;;;;;;11.57;3.38;;;;;;;20.05;57.52;100028.94;5011125;28;20623;-62
2022/10/28 08:00:13;;;;;;;8.88;3.38;;;;;;;20.06;57.35;100027.94;5011121;28;20414;-61
2022/10/28 08:02:40;;;;;;;9.98;3.10;;;;;;;20.08;57.30;100028.66;5011009;28;20057;-61
2022/10/28 08:05:06;;;;;;;10.45;3.22;;;;;;;20.11;57.56;100023.00;5010691;28;20042;-60
2022/10/28 08:07:33;;;;;;;10.57;3.50;;;;;;;20.14;57.62;100014.72;5010812;28;20133;-61
2022/10/28 08:10:04;;;;;;;18.73;3.70;;;;;;;20.16;57.39;100018.09;5012455;28;20049;-60
2022/10/28 08:12:31;;;;;;;16.20;4.13;;;;;;;20.18;57.35;100017.94;4997099;28;20053;-61
2022/10/28 08:14:57;;;;;;;14.65;4.70;;;;;;;20.20;57.55;100020.47;5014029;28;20062;-60
2022/10/28 08:17:24;;;;;;;12.80;3.88;;;;;;;20.22;57.60;100027.34;5014184;28;20065;-62
2022/10/28 08:19:50;;;;;;;12.85;4.00;;;;;;;20.26;57.58;100028.75;5014075;28;20229;-62
2022/10/28 08:22:16;;;;;;;10.23;3.80;;;;;;;20.27;57.27;100026.94;5013963;28;20053;-60
2022/10/28 08:24:43;;;;;;;12.93;4.18;;;;;;;20.31;57.64;100023.81;5013891;28;20096;-61
2022/10/28 08:27:09;;;;;;;12.50;3.50;;;;;;;20.34;57.41;100020.03;5013860;28;20050;-60
2022/10/28 08:29:35;;;;;;;15.65;3.72;;;;;;;20.38;57.44;100026.78;5014068;28;20132;-60
2022/10/28 08:32:02;;;;;;;9.93;3.53;;;;;;;20.42;57.39;100025.47;5013960;28;20104;-60
2022/10/28 08:34:29;;;;;;;10.45;3.85;;;;;;;20.46;57.22;100023.34;5013992;28;20081;-60
2022/10/28 08:36:56;;;;;;;11.20;3.72;;;;;;;20.51;57.26;100025.56;5013412;28;20054;-61
2022/10/28 08:39:22;;;;;;;14.20;3.67;;;;;;;20.55;57.15;100026.97;5013621;28;20050;-60
2022/10/28 08:42:18;;;;;;;10.20;3.63;;;;;;;20.54;57.08;100014.59;5013812;28;20058;-61
2022/10/28 08:44:50;;;;;;;15.73;4.38;;;;;;;20.62;56.74;100017.38;4995975;28;20104;-63
2022/10/28 08:47:27;;;;;;;11.23;3.42;;;;;;;20.66;56.71;100028.63;4995987;28;20104;-60
2022/10/28 08:50:02;;;;;;;14.75;4.10;;;;;;;20.71;57.05;100010.31;5013671;28;20474;-60
2022/10/28 08:52:44;;;;;;;11.68;3.65;;;;;;;20.73;56.62;100020.84;4995962;28;20053;-60
2022/10/28 08:55:19;;;;;;;17.55;3.42;;;;;;;20.80;56.60;100024.63;5013160;28;20485;-62
2022/10/28 08:57:52;;;;;;;8.75;3.13;;;;;;;20.83;56.74;100022.50;4995794;28;20073;-62
2022/10/28 09:00:20;;;;;;;;;;;;;;;20.88;56.43;100014.06;5013638;28;20104;-60
2022/10/28 09:03:12;;;;;;;11.52;3.38;;;;;;;20.91;56.33;100013.78;5013306;28;19956;-60
2022/10/28 09:05:41;;;;;;;13.43;3.53;;;;;;;20.98;56.56;100011.34;5012934;28;20142;-63
2022/10/28 09:08:22;;;;;;;11.27;4.05;;;;;;;20.96;56.30;100011.50;5011737;28;20042;-60
2022/10/28 09:11:12;;;;;;;10.75;3.78;;;;;;;21.01;56.41;100004.84;5013588;28;20104;-61
2022/10/28 09:14:01;;;;;;;12.75;3.72;;;;;;;21.07;56.75;100017.63;5013116;28;20053;-61
2022/10/28 09:16:36;;;;;;;12.40;4.25;;;;;;;21.13;56.89;100006.31;5012896;28;20046;-61
2022/10/28 09:19:13;;;;;;;14.57;3.38;;;;;;;21.17;56.54;100012.22;5012972;28;20057;-62
2022/10/28 09:21:49;;;;;;;11.90;3.08;;;;;;;21.22;56.53;100015.28;5012564;28;20073;-60
2022/10/28 09:24:51;;;;;;;11.00;3.92;;;;;;;21.28;56.44;100016.50;5013135;28;20053;-61
2022/10/28 09:27:37;;;;;;;10.48;3.78;;;;;;;21.36;55.98;100013.91;4999093;28;20509;-60
2022/10/28 09:30:24;;;;;;;13.20;4.55;;;;;;;21.42;56.17;100012.47;5013001;28;20096;-60
2022/10/28 09:32:56;;;;;;;16.25;4.03;;;;;;;21.51;56.36;100005.34;5012806;28;20061;-61
2022/10/28 09:35:29;;;;;;;14.27;3.20;;;;;;;21.56;56.58;100016.44;5012439;28;20061;-61
2022/10/28 09:38:10;;;;;;;9.68;3.78;;;;;;;21.58;56.22;100001.91;5012916;28;20050;-60
2022/10/28 09:40:41;;;;;;;12.27;3.10;;;;;;;21.66;56.30;100006.50;5012840;28;20050;-61
2022/10/28 09:43:27;;;;;;;18.40;3.70;;;;;;;21.72;56.37;99999.69;5012598;28;20101;-61
2022/10/28 09:46:00;;;;;;;15.95;4.22;;;;;;;21.78;56.14;100003.59;4994559;28;20441;-60
2022/10/28 09:48:40;;;;;;;12.25;3.55;;;;;;;21.80;56.28;99993.56;5012257;28;20490;-60
2022/10/28 09:51:19;;;;;;;16.52;4.55;;;;;;;21.89;56.17;99997.16;5012442;28;20049;-60
2022/10/28 09:53:45;;;;;;;11.25;4.10;;;;;;;22.01;56.56;99998.59;4994770;28;20081;-61
2022/10/28 09:56:13;;;;;;;9.90;3.25;;;;;;;22.11;56.18;99995.81;5011827;28;20089;-60
2022/10/28 09:58:45;;;;;;;13.10;3.97;;;;;;;22.21;56.02;100001.91;5012352;28;20042;-60
2022/10/28 10:01:13;;;;;;;14.50;3.70;;;;;;;22.38;56.42;100004.69;5012520;28;20057;-60
2022/10/28 10:03:40;;;;;;;12.27;3.45;;;;;;;22.51;56.46;100007.78;5012107;28;20490;-60
2022/10/28 10:06:12;;;;;;;13.13;3.85;;;;;;;22.64;54.93;100011.88;5011950;28;20140;-60
2022/10/28 10:08:40;;;;;;;15.05;3.63;;;;;;;22.82;55.83;100003.75;5012103;28;20145;-60
2022/10/28 10:11:30;;;;;;;11.85;3.72;;;;;;;22.94;54.36;100009.66;5012589;28;20060;-60
2022/10/28 10:14:02;;;;;;;8.35;3.30;;;;;;;23.13;54.97;100005.00;5012062;28;20487;-60
2022/10/28 10:16:46;;;;;;;11.32;3.53;;;;;;;23.23;53.65;100007.56;5011878;28;20053;-61
2022/10/28 10:19:12;;;;;;;12.45;3.60;;;;;;;23.38;54.38;99999.72;5011910;28;20077;-61
2022/10/28 10:21:38;;;;;;;10.30;3.25;;;;;;;23.45;53.98;100003.44;5012096;28;20108;-62
2022/10/28 10:24:25;;;;;;;8.13;2.92;;;;;;;23.49;53.54;100010.16;5011871;28;20092;-61
2022/10/28 10:26:52;;;;;;;11.40;3.50;;;;;;;23.61;53.35;100012.50;5166153;23;20050;-61
2022/10/28 10:29:20;;;;;;;11.48;3.70;;;;;;;23.65;53.49;100009.34;4992487;28;20521;-61
2022/10/28 10:31:47;;;;;;;16.80;3.50;;;;;;;23.72;53.50;100008.66;4991478;28;20137;-61
2022/10/28 10:34:25;;;;;;;11.07;3.60;;;;;;;23.76;52.48;100010.84;4974814;28;20491;-58
2022/10/28 10:36:54;;;;;;;14.70;3.70;;;;;;;23.87;52.78;100011.50;4974946;28;20101;-58
2022/10/28 10:39:35;;;;;;;8.43;2.65;;;;;;;23.94;52.81;100008.00;4992269;28;20140;-59
2022/10/28 10:42:02;;;;;;;16.50;3.60;;;;;;;24.05;53.33;99998.75;4974739;28;20060;-58
2022/10/28 10:44:34;;;;;;;8.32;3.33;;;;;;;24.16;52.58;100011.03;4991897;28;20137;-58
2022/10/28 10:47:03;;;;;;;14.10;2.95;;;;;;;24.29;53.28;100007.78;4991932;28;20058;-58
2022/10/28 10:49:33;;;;;;;10.05;3.47;;;;;;;24.43;52.54;100016.16;4991771;28;20454;-58
2022/10/28 10:52:08;;;;;;;14.95;3.58;;;;;;;24.54;51.68;100007.72;4991936;28;20046;-61
2022/10/28 10:54:36;;;;;;;9.98;3.20;;;;;;;24.69;52.02;100001.63;4992223;28;20141;-60
2022/10/28 10:57:23;;;;;;;13.25;3.22;;;;;;;24.77;51.56;100006.97;4974416;28;20484;-60
2022/10/28 10:59:52;;;;;;;11.23;3.50;;;;;;;24.91;51.22;100004.56;4974759;28;20262;-58
2022/10/28 11:02:33;;;;;;;10.82;3.15;;;;;;;25.00;51.14;100000.81;4991930;28;20046;-58
2022/10/28 11:05:06;;;;;;;9.10;3.38;;;;;;;25.18;51.12;99997.00;4991566;28;20050;-59
2022/10/28 11:07:33;;;;;;;9.27;3.25;;;;;;;25.34;51.73;99999.59;4992185;28;20057;-59
2022/10/28 11:10:01;;;;;;;5.10;2.60;;;;;;;25.49;51.32;99996.16;4990644;28;20058;-58
2022/10/28 11:12:34;;;;;;;10.80;3.92;;;;;;;25.64;49.78;99996.22;4974630;28;20054;-59
2022/10/28 11:15:14;;;;;;;11.13;3.33;;;;;;;25.84;50.89;99993.88;4990837;28;20042;-59
2022/10/28 11:18:01;;;;;;;13.20;3.45;;;;;;;26.04;49.97;99990.63;4991923;28;20137;-59
2022/10/28 11:20:45;;;;;;;9.80;3.15;;;;;;;26.33;49.29;99994.44;4991863;28;20608;-59
2022/10/28 11:23:31;;;;;;;13.32;3.65;;;;;;;26.66;50.32;99980.53;4974739;28;20073;-60
2022/10/28 11:26:08;;;;;;;9.60;3.15;;;;;;;27.01;48.95;99985.34;4991325;28;20090;-62
2022/10/28 11:28:45;;;;;;;10.05;3.45;;;;;;;27.39;48.50;99975.34;4991778;28;20050;-61
2022/10/28 11:31:14;;;;;;;13.70;4.15;;;;;;;27.70;48.47;99985.81;4991743;28;20505;-61
2022/10/28 11:34:20;;;;;;;16.00;3.63;;;;;;;27.91;46.69;99983.28;4991614;28;20050;-60
2022/10/28 11:37:08;;;;;;;9.95;3.10;;;;;;;28.05;46.55;99979.66;4987216;28;20527;-60
2022/10/28 11:39:37;;;;;;;9.95;3.40;;;;;;;28.17;46.12;99979.94;4991494;28;20053;-60
2022/10/28 11:42:22;;;;;;;13.07;3.58;;;;;;;28.15;45.20;99973.03;4991644;28;20054;-60
2022/10/28 11:44:55;;;;;;;12.80;3.38;;;;;;;28.23;46.05;99971.00;4994575;28;20046;-59
2022/10/28 11:47:40;;;;;;;10.25;3.15;;;;;;;28.27;45.31;99965.22;4978244;28;20046;-60
2022/10/28 11:50:30;;;;;;;7.97;3.08;;;;;;;28.38;45.32;99975.50;4995022;28;20051;-59
2022/10/28 11:53:04;;;;;;;15.02;3.15;;;;;;;28.40;44.67;99970.72;4995175;28;20071;-59
2022/10/28 11:55:45;;;;;;;6.88;2.80;;;;;;;28.29;43.85;99969.41;4995064;28;20117;-61
2022/10/28 11:58:26;;;;;;;15.55;3.90;;;;;;;28.25;44.35;99967.28;4995162;28;20100;-61